Time,TemperatureF,DewpointF,PressureIn,WindDirection,WindDirectionDegrees,WindSpeedMPH,WindSpeedGustMPH,Humidity,HourlyPrecipIn,Conditions,Clouds,dailyrainin,SoftwareType,DateUTC
2013-03-21 00:12:00,15.1,13.0,29.83,West,273,0.0,2.0,90,0.00,,,0.00,weatherlink.com 1.10,2013-03-21 04:12:00,
2013-03-21 00:26:00,15.5,13.0,29.82,West,273,0.0,2.0,90,0.00,,,0.00,weatherlink.com 1.10,2013-03-21 04:26:00,
2013-03-21 00:42:00,16.0,14.0,29.83,West,273,0.0,2.0,91,0.00,,,0.00,weatherlink.com 1.10,2013-03-21 04:42:00,
2013-03-21 00:57:00,17.6,16.0,29.82,West,273,0.0,5.0,92,0.00,,,0.00,weatherlink.com 1.10,2013-03-21 04:57:00,
2013-03-21 01:12:00,17.1,14.0,29.82,West,273,1.0,2.0,89,0.00,,,0.00,weatherlink.com 1.10,2013-03-21 05:12:00,
2013-03-21 01:27:00,15.9,14.0,29.82,West,273,0.0,3.0,90,0.00,,,0.00,weatherlink.com 1.10,2013-03-21 05:27:00,
2013-03-21 01:57:00,16.6,14.0,29.82,West,273,0.0,3.0,89,0.00,,,0.00,weatherlink.com 1.10,2013-03-21 05:57:00,
2013-03-21 02:12:00,18.8,15.0,29.82,NW,311,2.0,6.0,84,0.00,,,0.00,weatherlink.com 1.10,2013-03-21 06:12:00,
2013-03-21 02:27:00,17.3,13.0,29.82,NW,311,3.0,4.0,84,0.00,,,0.00,weatherlink.com 1.10,2013-03-21 06:27:00,
2013-03-21 02:42:00,16.4,13.0,29.81,NW,311,0.0,2.0,86,0.00,,,0.00,weatherlink.com 1.10,2013-03-21 06:42:00,
2013-03-21 02:57:00,14.6,11.0,29.81,NW,311,0.0,2.0,86,0.00,,,0.00,weatherlink.com 1.10,2013-03-21 06:57:00,
2013-03-21 03:12:00,13.2,10.0,29.80,NW,311,0.0,4.0,87,0.00,,,0.00,weatherlink.com 1.10,2013-03-21 07:12:00,
2013-03-21 03:28:00,10.2,7.0,29.80,NW,311,1.0,5.0,85,0.00,,,0.00,weatherlink.com 1.10,2013-03-21 07:28:00,
2013-03-21 03:43:00,9.6,7.0,29.79,NW,311,2.0,4.0,90,0.00,,,0.00,weatherlink.com 1.10,2013-03-21 07:43:00,
2013-03-21 03:58:00,10.1,8.0,29.78,NW,311,3.0,4.0,89,0.00,,,0.00,weatherlink.com 1.10,2013-03-21 07:58:00,
2013-03-21 04:13:00,9.2,6.0,29.79,NW,311,0.0,1.0,87,0.00,,,0.00,weatherlink.com 1.10,2013-03-21 08:13:00,
2013-03-21 04:28:00,7.3,4.0,29.79,NW,311,4.0,5.0,85,0.00,,,0.00,weatherlink.com 1.10,2013-03-21 08:28:00,
2013-03-21 04:43:00,7.1,4.0,29.78,NW,311,2.0,3.0,87,0.00,,,0.00,weatherlink.com 1.10,2013-03-21 08:43:00,
2013-03-21 05:12:00,4.8,2.0,29.79,NW,311,2.0,2.0,86,0.00,,,0.00,weatherlink.com 1.10,2013-03-21 09:12:00,
2013-03-21 05:30:00,4.4,1.0,29.79,NW,311,2.0,2.0,87,0.00,,,0.00,weatherlink.com 1.10,2013-03-21 09:30:00,
2013-03-21 05:45:00,3.7,1.0,29.79,NW,311,0.0,2.0,87,0.00,,,0.00,weatherlink.com 1.10,2013-03-21 09:45:00,
2013-03-21 05:59:00,3.6,1.0,29.79,NW,311,2.0,2.0,87,0.00,,,0.00,weatherlink.com 1.10,2013-03-21 09:59:00,
2013-03-21 06:14:00,2.2,-1.0,29.79,NW,311,0.0,2.0,85,0.00,,,0.00,weatherlink.com 1.10,2013-03-21 10:14:00,
2013-03-21 06:30:00,1.6,-2.0,29.79,NW,311,0.0,2.0,85,0.00,,,0.00,weatherlink.com 1.10,2013-03-21 10:30:00,
2013-03-21 06:44:00,2.0,-1.0,29.79,NW,311,2.0,3.0,86,0.00,,,0.00,weatherlink.com 1.10,2013-03-21 10:44:00,
2013-03-21 07:00:00,2.2,-1.0,29.80,NW,311,0.0,2.0,88,0.00,,,0.00,weatherlink.com 1.10,2013-03-21 11:00:00,
2013-03-21 07:15:00,1.5,-2.0,29.80,NW,311,0.0,3.0,87,0.00,,,0.00,weatherlink.com 1.10,2013-03-21 11:15:00,
2013-03-21 07:30:00,1.8,-1.0,29.79,NW,311,1.0,2.0,87,0.00,,,0.00,weatherlink.com 1.10,2013-03-21 11:30:00,
2013-03-21 07:45:00,2.7,0.0,29.80,NW,311,0.0,2.0,88,0.00,,,0.00,weatherlink.com 1.10,2013-03-21 11:45:00,
2013-03-21 08:00:00,4.4,2.0,29.80,NW,311,0.0,0.0,88,0.00,,,0.00,weatherlink.com 1.10,2013-03-21 12:00:00,
2013-03-21 08:16:00,7.8,5.0,29.79,NW,311,0.0,2.0,89,0.00,,,0.00,weatherlink.com 1.10,2013-03-21 12:16:00,
2013-03-21 08:30:00,9.7,7.0,29.79,NW,311,0.0,1.0,89,0.00,,,0.00,weatherlink.com 1.10,2013-03-21 12:30:00,
2013-03-21 08:45:00,10.9,8.0,29.79,NW,311,0.0,0.0,89,0.00,,,0.00,weatherlink.com 1.10,2013-03-21 12:45:00,
2013-03-21 09:01:00,13.6,11.0,29.79,NW,311,0.0,0.0,90,0.00,,,0.00,weatherlink.com 1.10,2013-03-21 13:01:00,
2013-03-21 09:31:00,19.2,16.0,29.78,SE,133,2.0,6.0,86,0.00,,,0.00,weatherlink.com 1.10,2013-03-21 13:31:00,
2013-03-21 09:46:00,20.9,15.0,29.79,ESE,109,0.0,5.0,78,0.00,,,0.00,weatherlink.com 1.10,2013-03-21 13:46:00,
2013-03-21 10:01:00,21.6,13.0,29.78,North,355,6.0,8.0,68,0.00,,,0.00,weatherlink.com 1.10,2013-03-21 14:01:00,
2013-03-21 10:16:00,21.6,11.0,29.78,North,360,4.0,9.0,64,0.00,,,0.00,weatherlink.com 1.10,2013-03-21 14:16:00,
2013-03-21 10:32:00,22.0,11.0,29.78,NNW,333,5.0,10.0,62,0.00,,,0.00,weatherlink.com 1.10,2013-03-21 14:32:00,
2013-03-21 10:47:00,22.7,11.0,29.78,NW,311,4.0,8.0,61,0.00,,,0.00,weatherlink.com 1.10,2013-03-21 14:47:00,
2013-03-21 11:02:00,22.5,10.0,29.77,West,269,6.0,9.0,59,0.00,,,0.00,weatherlink.com 1.10,2013-03-21 15:02:00,
2013-03-21 11:17:00,23.4,11.0,29.77,West,260,6.0,10.0,59,0.00,,,0.00,weatherlink.com 1.10,2013-03-21 15:17:00,
2013-03-21 11:32:00,23.5,11.0,29.75,NNW,331,7.0,12.0,60,0.00,,,0.00,weatherlink.com 1.10,2013-03-21 15:32:00,
2013-03-21 11:47:00,23.5,10.0,29.75,NNW,337,7.0,12.0,56,0.01,,,0.01,weatherlink.com 1.10,2013-03-21 15:47:00,
2013-03-21 12:03:00,25.0,10.0,29.75,NNW,329,5.0,10.0,54,0.01,,,0.01,weatherlink.com 1.10,2013-03-21 16:03:00,
2013-03-21 12:18:00,24.9,9.0,29.74,NNE,23,8.0,9.0,52,0.01,,,0.01,weatherlink.com 1.10,2013-03-21 16:18:00,
2013-03-21 12:33:00,25.2,9.0,29.73,NW,321,5.0,12.0,51,0.01,,,0.01,weatherlink.com 1.10,2013-03-21 16:33:00,
2013-03-21 12:49:00,25.2,9.0,29.72,NW,319,7.0,13.0,50,0.00,,,0.01,weatherlink.com 1.10,2013-03-21 16:49:00,
2013-03-21 13:03:00,26.0,10.0,29.72,NW,314,4.0,12.0,50,0.00,,,0.01,weatherlink.com 1.10,2013-03-21 17:03:00,
2013-03-21 13:18:00,26.2,9.0,29.71,NW,305,10.0,13.0,48,0.00,,,0.01,weatherlink.com 1.10,2013-03-21 17:18:00,
2013-03-21 13:33:00,27.2,10.0,29.71,NNW,339,9.0,12.0,48,0.00,,,0.01,weatherlink.com 1.10,2013-03-21 17:33:00,
2013-03-21 13:48:00,25.5,9.0,29.71,NW,320,10.0,15.0,49,0.01,,,0.02,weatherlink.com 1.10,2013-03-21 17:48:00,
2013-03-21 14:04:00,26.2,9.0,29.70,NW,324,9.0,11.0,49,0.01,,,0.02,weatherlink.com 1.10,2013-03-21 18:04:00,
2013-03-21 14:19:00,26.1,9.0,29.70,NW,312,6.0,7.0,48,0.01,,,0.02,weatherlink.com 1.10,2013-03-21 18:19:00,
2013-03-21 14:34:00,27.6,10.0,29.69,NW,310,5.0,12.0,47,0.01,,,0.02,weatherlink.com 1.10,2013-03-21 18:34:00,
2013-03-21 14:49:00,27.8,8.0,29.68,SW,234,6.0,10.0,43,0.00,,,0.02,weatherlink.com 1.10,2013-03-21 18:49:00,
2013-03-21 15:05:00,28.7,8.0,29.68,SW,221,6.0,11.0,41,0.00,,,0.02,weatherlink.com 1.10,2013-03-21 19:05:00,
2013-03-21 15:19:00,26.8,9.0,29.68,WNW,299,3.0,14.0,47,0.00,,,0.02,weatherlink.com 1.10,2013-03-21 19:19:00,
2013-03-21 15:34:00,27.7,10.0,29.68,NW,325,9.0,12.0,47,0.00,,,0.02,weatherlink.com 1.10,2013-03-21 19:34:00,
2013-03-21 15:51:00,26.7,10.0,29.68,NW,305,13.0,19.0,50,0.00,,,0.02,weatherlink.com 1.10,2013-03-21 19:51:00,
2013-03-21 16:05:00,25.7,11.0,29.68,West,269,9.0,16.0,55,0.01,,,0.03,weatherlink.com 1.10,2013-03-21 20:05:00,
2013-03-21 16:20:00,26.7,10.0,29.67,NNW,331,6.0,12.0,50,0.01,,,0.03,weatherlink.com 1.10,2013-03-21 20:20:00,
2013-03-21 16:35:00,27.2,10.0,29.67,NNW,348,7.0,14.0,48,0.01,,,0.03,weatherlink.com 1.10,2013-03-21 20:35:00,
2013-03-21 16:50:00,25.1,10.0,29.68,NW,309,9.0,15.0,54,0.01,,,0.03,weatherlink.com 1.10,2013-03-21 20:50:00,
2013-03-21 17:05:00,25.2,12.0,29.68,NNW,345,12.0,15.0,57,0.00,,,0.03,weatherlink.com 1.10,2013-03-21 21:05:00,
2013-03-21 17:21:00,24.7,12.0,29.68,NNW,343,7.0,16.0,58,0.00,,,0.03,weatherlink.com 1.10,2013-03-21 21:21:00,
2013-03-21 18:06:00,23.8,11.0,29.70,WNW,298,3.0,11.0,59,0.00,,,0.03,weatherlink.com 1.10,2013-03-21 22:06:00,
2013-03-21 18:20:00,23.7,10.0,29.70,NNW,327,4.0,8.0,57,0.00,,,0.03,weatherlink.com 1.10,2013-03-21 22:20:00,
2013-03-21 18:51:00,24.2,12.0,29.70,NW,309,4.0,8.0,60,0.00,,,0.03,weatherlink.com 1.10,2013-03-21 22:51:00,
2013-03-21 19:09:00,23.3,13.0,29.71,NNW,328,11.0,15.0,64,0.00,,,0.03,weatherlink.com 1.10,2013-03-21 23:09:00,
2013-03-21 19:37:00,22.0,13.0,29.73,NW,321,4.0,8.0,69,0.00,,,0.03,weatherlink.com 1.10,2013-03-21 23:37:00,
2013-03-21 19:52:00,21.8,14.0,29.73,NW,312,4.0,5.0,71,0.00,,,0.03,weatherlink.com 1.10,2013-03-21 23:52:00,
2013-03-21 20:07:00,22.0,12.0,29.73,NW,312,6.0,9.0,65,0.00,,,0.03,weatherlink.com 1.10,2013-03-22 00:07:00,
2013-03-21 20:22:00,21.8,12.0,29.74,West,269,4.0,8.0,66,0.00,,,0.03,weatherlink.com 1.10,2013-03-22 00:22:00,
2013-03-21 20:38:00,20.9,13.0,29.74,NW,315,4.0,7.0,72,0.00,,,0.03,weatherlink.com 1.10,2013-03-22 00:38:00,
2013-03-21 20:53:00,20.2,14.0,29.74,NNW,346,1.0,6.0,76,0.00,,,0.03,weatherlink.com 1.10,2013-03-22 00:53:00,
2013-03-21 21:08:00,19.9,14.0,29.74,NNW,346,1.0,3.0,77,0.00,,,0.03,weatherlink.com 1.10,2013-03-22 01:08:00,
2013-03-21 21:23:00,19.1,13.0,29.74,NNW,346,1.0,2.0,78,0.00,,,0.03,weatherlink.com 1.10,2013-03-22 01:23:00,
2013-03-21 21:37:00,19.3,12.0,29.74,WNW,298,6.0,7.0,73,0.00,,,0.03,weatherlink.com 1.10,2013-03-22 01:37:00,
2013-03-21 21:53:00,19.4,10.0,29.74,NW,306,4.0,5.0,68,0.00,,,0.03,weatherlink.com 1.10,2013-03-22 01:53:00,
2013-03-21 22:08:00,19.5,9.0,29.74,WNW,284,4.0,8.0,64,0.00,,,0.03,weatherlink.com 1.10,2013-03-22 02:08:00,
2013-03-21 22:24:00,18.9,9.0,29.74,WNW,294,0.0,5.0,65,0.00,,,0.03,weatherlink.com 1.10,2013-03-22 02:24:00,
2013-03-21 22:39:00,17.1,9.0,29.74,WNW,294,3.0,3.0,70,0.00,,,0.03,weatherlink.com 1.10,2013-03-22 02:39:00,
2013-03-21 22:54:00,16.8,10.0,29.74,WNW,294,0.0,3.0,74,0.00,,,0.03,weatherlink.com 1.10,2013-03-22 02:54:00,
2013-03-21 23:09:00,16.1,10.0,29.74,NNW,334,2.0,3.0,75,0.00,,,0.03,weatherlink.com 1.10,2013-03-22 03:09:00,
2013-03-21 23:24:00,18.6,9.0,29.74,NW,314,6.0,7.0,67,0.00,,,0.03,weatherlink.com 1.10,2013-03-22 03:24:00,
2013-03-21 23:39:00,19.3,9.0,29.74,NNW,327,3.0,7.0,65,0.00,,,0.03,weatherlink.com 1.10,2013-03-22 03:39:00,
2013-03-21 23:55:00,18.8,9.0,29.74,NNW,335,2.0,7.0,67,0.00,,,0.03,weatherlink.com 1.10,2013-03-22 03:55:00,